Flight Track Log - Related Links

Times and Time Zones

All times are in EDT time to prevent confusion due to time zone crossing. See the AAL1110 flight status page for this flight to view local times or setup timezone preferences in your user account.

Time Position Orientation Groundspeed Altitude Reporting Facility
EDT Latitude Longitude Course Direction KTS MPH feet Rate Location/Type
Thu 08:34:45 PM 26.0750 -80.1344 81° East 170 196 700  Level Miami Center
Thu 08:35:34 PM 26.0825 -80.0814 81° East 202 232 1,900 1,479 Climbing Miami Center
Thu 08:35:58 PM 26.0953 -80.0656 48° Northeast 242 278 2,500 1,900 Climbing Miami Center
Thu 08:36:34 PM 26.1456 -80.0622 North 256 295 3,800 2,656 Climbing Miami Center
Thu 08:36:59 PM 26.1617 -80.0836 310° West 266 306 5,200 2,900 Climbing Miami Center
Thu 08:37:34 PM 26.1967 -80.1100 326° Northwest 285 328 6,700 2,274 Climbing Miami Center
Thu 08:38:34 PM 26.2458 -80.1483 325° Northwest 285 328 8,800 2,000 Climbing Miami Center
Thu 08:39:34 PM 26.3178 -80.2083 323° Northwest 292 336 10,700 1,900 Climbing Miami Center
Thu 08:40:34 PM 26.4058 -80.2781 325° Northwest 327 376 12,600 2,150 Climbing Miami Center
Thu 08:41:34 PM 26.4819 -80.3336 327° Northwest 355 409 15,000 2,550 Climbing Miami Center
Thu 08:42:34 PM 26.5914 -80.3808 339° North 371 427 17,700 2,400 Climbing Miami Center
Thu 08:43:34 PM 26.6867 -80.4186 340° North 388 447 19,800 2,150 Climbing Miami Center
Thu 08:44:34 PM 26.8003 -80.4686 339° North 394 453 22,000 2,000 Climbing Miami Center
Thu 08:45:34 PM 26.9097 -80.5117 341° North 405 466 23,800 1,750 Climbing Miami Center
Thu 08:46:34 PM 27.0256 -80.5572 341° North 417 480 25,500 1,700 Climbing Miami Center
Thu 08:47:34 PM 27.1392 -80.6053 339° North 428 493 27,200 1,600 Climbing Miami Center
Thu 08:48:34 PM 27.2417 -80.6739 329° Northwest 428 493 28,700 1,800 Climbing Miami Center
Thu 08:49:34 PM 27.3419 -80.7519 325° Northwest 428 493 30,800 1,950 Climbing Miami Center
Thu 08:50:34 PM 27.4300 -80.8136 328° Northwest 428 493 32,600 1,550 Climbing Miami Center
Thu 08:51:34 PM 27.5242 -80.8844 326° Northwest 412 474 33,900 650 Climbing Miami Center
Thu 08:52:34 PM 27.6181 -80.9558 326° Northwest 405 466 33,900 50 Level Miami Center
Thu 08:53:34 PM 27.7233 -80.9994 340° North 399 459 34,000 50 Climbing Miami Center
Thu 08:54:34 PM 27.8308 -81.0339 344° North 399 459 34,000 -50 Level Miami Center
Thu 08:55:34 PM 27.9425 -81.0756 342° North 406 467 33,900 450 Descending Miami Center
Thu 08:56:34 PM 28.0622 -81.1178 343° North 406 467 34,900 550 Climbing Miami Center
Thu 08:57:34 PM 28.1736 -81.1572 343° North 406 467 35,000 33 Climbing Miami Center
Thu 08:59:38 PM 28.4042 -81.2383 343° North 437 503 35,000  Level Jacksonville Center
Thu 09:00:38 PM 28.5133 -81.2792 342° North 431 496 35,000  Level Jacksonville Center
Thu 09:01:38 PM 28.6267 -81.3197 343° North 426 490 35,000  Level Jacksonville Center
Thu 09:02:38 PM 28.7375 -81.3583 343° North 426 490 35,000  Level Jacksonville Center
Thu 09:03:38 PM 28.8508 -81.3992 342° North 426 490 35,000  Level Jacksonville Center
Thu 09:04:38 PM 28.9639 -81.4378 343° North 426 490 35,000 -50 Level Jacksonville Center
Thu 09:05:38 PM 29.0772 -81.4789 342° North 426 490 34,900  Descending Jacksonville Center
Thu 09:06:38 PM 29.1881 -81.5203 342° North 426 490 35,000 50 Climbing Jacksonville Center
Thu 09:07:38 PM 29.2867 -81.5569 342° North 421 484 35,000  Level Jacksonville Center
Thu 09:08:38 PM 29.3978 -81.5983 342° North 421 484 35,000  Level Jacksonville Center
Thu 09:09:38 PM 29.5089 -81.6375 343° North 421 484 35,000  Level Jacksonville Center
Thu 09:10:38 PM 29.6156 -81.6767 342° North 415 478 35,000  Level Jacksonville Center
Thu 09:11:38 PM 29.7267 -81.7158 343° North 410 472 35,000  Level Jacksonville Center
Thu 09:12:38 PM 29.8356 -81.7578 342° North 410 472 35,000  Level Jacksonville Center
Thu 09:13:38 PM 29.9467 -81.7972 343° North 410 472 35,000 -50 Level Jacksonville Center
Thu 09:14:38 PM 30.0597 -81.8342 344° North 410 472 34,900  Descending Jacksonville Center
Thu 09:15:38 PM 30.1706 -81.8714 344° North 410 472 35,000 50 Climbing Jacksonville Center
Thu 09:16:38 PM 30.2817 -81.9183 340° North 410 472 35,000  Level Jacksonville Center
Thu 09:17:38 PM 30.3906 -81.9703 338° Northwest 415 478 35,000  Level Jacksonville Center
Thu 09:18:38 PM 30.4994 -82.0197 339° North 415 478 35,000 -50 Level Jacksonville Center
Thu 09:19:38 PM 30.6231 -82.0839 336° Northwest 420 483 34,900 -50 Descending Jacksonville Center
Thu 09:20:38 PM 30.7319 -82.1336 339° North 420 483 34,900 50 Level Jacksonville Center
Thu 09:21:38 PM 30.8428 -82.1789 341° North 420 483 35,000 50 Climbing Jacksonville Center
Thu 09:22:38 PM 30.9578 -82.2119 346° North 420 483 35,000  Level Jacksonville Center
Thu 09:23:38 PM 31.0728 -82.2450 346° North 420 483 35,000  Level Jacksonville Center
Thu 09:24:38 PM 31.1900 -82.2806 345° North 420 483 35,000  Level Jacksonville Center
Thu 09:26:10 PM 31.3569 -82.3244 347° North 432 497 35,000  Level Atlanta Center
Thu 09:27:10 PM 31.4722 -82.3614 345° North 432 497 35,000  Level Atlanta Center
Thu 09:28:10 PM 31.5917 -82.3981 345° North 432 497 35,000  Level Atlanta Center
Thu 09:29:10 PM 31.7089 -82.4325 346° North 432 497 35,000  Level Atlanta Center
Thu 09:30:10 PM 31.8306 -82.4672 346° North 437 503 35,000  Level Atlanta Center
Thu 09:31:10 PM 31.9478 -82.5067 344° North 437 503 35,000  Level Atlanta Center
Thu 09:32:10 PM 32.0653 -82.5414 346° North 437 503 35,000  Level Atlanta Center
Thu 09:33:10 PM 32.1889 -82.5786 346° North 437 503 35,000  Level Atlanta Center
Thu 09:34:10 PM 32.3019 -82.6136 345° North 437 503 35,000  Level Atlanta Center
Thu 09:35:10 PM 32.4233 -82.6486 346° North 437 503 35,000  Level Atlanta Center
Thu 09:36:10 PM 32.5364 -82.6811 346° North 431 496 35,000  Level Atlanta Center
Thu 09:37:10 PM 32.6539 -82.7214 344° North 425 489 35,000  Level Atlanta Center
Thu 09:38:10 PM 32.7711 -82.7567 346° North 425 489 35,000  Level Atlanta Center
Thu 09:39:10 PM 32.9050 -82.7992 345° North 439 505 35,000  Level Atlanta Center
Thu 09:40:10 PM 33.0203 -82.8347 346° North 434 499 35,000  Level Atlanta Center
Thu 09:41:10 PM 33.1353 -82.8728 345° North 434 499 35,000  Level Atlanta Center
Thu 09:42:10 PM 33.2506 -82.9061 346° North 434 499 35,000  Level Atlanta Center
Thu 09:43:10 PM 33.3719 -82.9419 346° North 439 505 35,000  Level Atlanta Center
Thu 09:44:10 PM 33.4892 -82.9778 346° North 433 498 35,000  Level Atlanta Center
Thu 09:45:10 PM 33.6000 -83.0114 346° North 433 498 35,000  Level Atlanta Center
Thu 09:46:10 PM 33.7150 -83.0472 345° North 427 491 35,000  Level Atlanta Center
Thu 09:47:10 PM 33.8303 -83.0861 344° North 427 491 35,000  Level Atlanta Center
Thu 09:48:10 PM 33.9453 -83.1222 345° North 421 484 35,000  Level Atlanta Center
Thu 09:49:10 PM 34.0603 -83.1586 345° North 421 484 35,000  Level Atlanta Center
Thu 09:50:10 PM 34.1753 -83.1953 345° North 421 484 35,000  Level Atlanta Center
Thu 09:51:10 PM 34.2925 -83.2317 346° North 426 490 35,000  Level Atlanta Center
Thu 09:52:10 PM 34.4075 -83.2683 345° North 426 490 35,000 -600 Level Atlanta Center
Thu 09:53:10 PM 34.5267 -83.3050 346° North 437 503 33,800 -1,200 Descending Atlanta Center
Thu 09:54:10 PM 34.6333 -83.3394 345° North 437 503 32,600 -1,400 Descending Atlanta Center
Thu 09:55:10 PM 34.7631 -83.3864 343° North 437 503 31,000 -1,200 Descending Atlanta Center
Thu 09:56:10 PM 34.8864 -83.4286 344° North 442 509 30,200 -500 Descending Atlanta Center
Thu 09:57:10 PM 35.0033 -83.4656 345° North 447 514 30,000 -100 Descending Atlanta Center
Thu 09:58:10 PM 35.1267 -83.5003 347° North 447 514 30,000  Level Atlanta Center
Thu 09:59:10 PM 35.2458 -83.5428 344° North 447 514 30,000  Level Atlanta Center
Thu 10:00:10 PM 35.3689 -83.5828 345° North 442 509 30,000  Level Atlanta Center
Thu 10:01:10 PM 35.4881 -83.6231 345° North 442 509 30,000  Level Atlanta Center
Thu 10:02:10 PM 35.6114 -83.6633 345° North 442 509 30,000  Level Atlanta Center
Thu 10:03:10 PM 35.7344 -83.7036 345° North 447 514 30,000  Level Atlanta Center
Thu 10:04:10 PM 35.8578 -83.7442 345° North 452 520 30,000  Level Atlanta Center
Thu 10:05:10 PM 35.9786 -83.7847 345° North 452 520 30,000  Level Atlanta Center
Thu 10:06:10 PM 36.0997 -83.8228 346° North 452 520 30,000  Level Atlanta Center
Thu 10:08:17 PM 36.3417 -83.9047 345° North 455 524 30,000  Level Indianapolis Center
Thu 10:09:18 PM 36.4617 -83.9450 345° North 450 518 30,000  Level Indianapolis Center
Thu 10:10:19 PM 36.6039 -83.9939 345° North 453 521 30,000  Level Indianapolis Center
Thu 10:11:20 PM 36.7275 -84.0358 345° North 456 525 30,000  Level Indianapolis Center
Thu 10:12:21 PM 36.8517 -84.0778 345° North 457 526 30,000  Level Indianapolis Center
Thu 10:13:22 PM 36.9758 -84.1211 344° North 460 529 30,000  Level Indianapolis Center
Thu 10:14:23 PM 37.1003 -84.1611 346° North 460 529 30,000  Level Indianapolis Center
Thu 10:15:24 PM 37.2228 -84.2047 344° North 457 526 30,000  Level Indianapolis Center
Thu 10:16:25 PM 37.3464 -84.2483 344° North 459 528 30,000  Level Indianapolis Center
Thu 10:17:26 PM 37.4694 -84.2903 345° North 457 526 30,000  Level Indianapolis Center
Thu 10:18:27 PM 37.5922 -84.3344 344° North 456 525 30,000  Level Indianapolis Center
Thu 10:19:28 PM 37.7167 -84.3767 345° North 459 528 30,000  Level Indianapolis Center
Thu 10:20:29 PM 37.8372 -84.4283 341° North 458 527 30,000  Level Indianapolis Center
Thu 10:21:30 PM 37.9572 -84.4831 340° North 455 524 30,000  Level Indianapolis Center
Thu 10:22:31 PM 38.0767 -84.5378 340° North 456 525 30,000  Level Indianapolis Center
Thu 10:23:32 PM 38.2181 -84.6008 341° North 460 529 30,000  Level Indianapolis Center
Thu 10:24:33 PM 38.3372 -84.6558 340° North 456 525 30,000  Level Indianapolis Center
Thu 10:25:34 PM 38.4572 -84.7097 341° North 458 527 30,000  Level Indianapolis Center
Thu 10:26:35 PM 38.5761 -84.7658 340° North 454 522 30,000  Level Indianapolis Center
Thu 10:27:36 PM 38.6933 -84.8214 340° North 452 520 30,000  Level Indianapolis Center
Thu 10:28:37 PM 38.8133 -84.8764 340° North 456 525 30,000  Level Indianapolis Center
Thu 10:29:38 PM 38.9311 -84.9331 339° North 456 525 30,000  Level Indianapolis Center
Thu 10:30:39 PM 39.0500 -84.9867 341° North 455 524 30,000  Level Indianapolis Center
Thu 10:31:40 PM 39.1681 -85.0419 340° North 454 522 30,000  Level Indianapolis Center
Thu 10:32:41 PM 39.2858 -85.0986 340° North 454 522 30,000 -197 Level Indianapolis Center
Thu 10:33:42 PM 39.4047 -85.1536 340° North 455 524 29,600 -639 Descending Indianapolis Center
Thu 10:34:43 PM 39.5419 -85.2200 340° North 444 511 28,700 -738 Descending Indianapolis Center
Thu 10:35:44 PM 39.6533 -85.2731 340° North 433 498 28,100 -344 Descending Indianapolis Center
Thu 10:36:45 PM 39.7664 -85.3267 340° North 433 498 28,000 -246 Descending Indianapolis Center
Thu 10:37:46 PM 39.8778 -85.3803 340° North 431 496 27,600 -634 Descending Indianapolis Center
Thu 10:38:48 PM 39.9908 -85.4336 340° North 434 499 26,700 -780 Descending Indianapolis Center
Thu 10:39:49 PM 40.1022 -85.4889 339° North 432 497 26,000 -344 Descending Indianapolis Center
Thu 10:40:50 PM 40.2133 -85.5428 340° North 429 494 26,000  Level Indianapolis Center
Thu 10:41:51 PM 40.3069 -85.6281 325° Northwest 419 482 26,000  Level Indianapolis Center
Thu 10:42:52 PM 40.3914 -85.7317 317° Northwest 417 480 26,000 -541 Level Indianapolis Center
Thu 10:43:53 PM 40.4925 -85.8569 317° Northwest 421 484 24,900 -1,230 Descending Indianapolis Center
Thu 10:44:54 PM 40.5742 -85.9589 317° Northwest 410 472 23,500 -1,308 Descending Indianapolis Center
Thu 10:46:06 PM 40.6725 -86.0811 317° Northwest 410 472 22,000 -1,038 Descending Chicago Center
Thu 10:47:07 PM 40.7497 -86.1794 316° Northwest 406 467 21,200 -1,024 Descending Chicago Center
Thu 10:48:09 PM 40.8294 -86.2794 317° Northwest 397 457 19,900 -1,268 Descending Chicago Center
Thu 10:49:10 PM 40.9081 -86.3794 316° Northwest 391 450 18,600 -1,279 Descending Chicago Center
Thu 10:50:11 PM 40.9858 -86.4786 316° Northwest 388 447 17,300 -1,279 Descending Chicago Center
Thu 10:51:12 PM 41.0614 -86.5742 316° Northwest 379 436 16,000 -1,366 Descending Chicago Center
Thu 10:52:14 PM 41.1494 -86.6881 316° Northwest 369 425 14,500 -1,268 Descending Chicago Center
Thu 10:53:15 PM 41.2153 -86.7678 318° Northwest 370 426 13,400 -1,328 Descending Chicago Center
Thu 10:54:16 PM 41.2986 -86.8797 315° West 361 415 11,800 -1,122 Descending Chicago Center
Thu 10:55:18 PM 41.3700 -86.9714 316° Northwest 360 414 11,100 -390 Descending Chicago Center
Thu 10:56:19 PM 41.4408 -87.0631 316° Northwest 357 411 11,000 -55 Descending Chicago Center
Thu 10:57:08 PM 41.5000 -87.1500 312° West 364 419 11,000  Level Chicago TRACON
Thu 10:58:14 PM 41.5833 -87.2500 318° Northwest 361 415 11,000  Level Chicago TRACON
Thu 10:59:08 PM 41.6333 -87.3500 304° West 357 411 11,000  Level Chicago TRACON
Thu 10:59:23 PM 41.6403 -87.3583 318° Northwest 360 414 11,000  Level Chicago Center
Thu 11:00:24 PM 41.7028 -87.4583 310° West 356 410 11,000  Level Chicago Center
Thu 11:01:25 PM 41.7772 -87.5789 310° West 355 409 11,000 -245 Level Chicago Center
Thu 11:02:02 PM 41.8167 -87.6333 314° West 348 400 10,600 -928 Descending Chicago TRACON
Thu 11:03:02 PM 41.8667 -87.7333 304° West 298 343 9,500 -1,381 Descending Chicago TRACON
Thu 11:04:08 PM 41.9000 -87.8333 294° West 281 323 7,700 -1,250 Descending Chicago TRACON
Thu 11:05:02 PM 41.9000 -87.9167 270° West 271 312 7,000 -762 Descending Chicago TRACON
Thu 11:06:14 PM 41.9000 -88.0333 270° West 256 295 6,100 -905 Descending Chicago TRACON
Thu 11:07:08 PM 41.9000 -88.1167 270° West 220 253 5,100 -1,063 Descending Chicago TRACON
Thu 11:07:33 PM 41.9025 -88.1364 280° West 242 278 4,700 -767 Descending Chicago Center
Thu 11:08:34 PM 41.9400 -88.1950 311° West 222 255 4,000 -590 Descending Chicago Center
Thu 11:09:35 PM 41.9669 -88.1461 53° Northeast 199 229 3,500 -404 Descending Chicago Center
Thu 11:10:03 PM 41.9667 -88.1167 91° East 177 204 3,400 -214 Descending Chicago TRACON

Login

Don't have an account? Register now (free) for customized features, flight alerts, and more!